Time,TemperatureF,DewpointF,PressureIn,WindDirection,WindDirectionDegrees,WindSpeedMPH,WindSpeedGustMPH,Humidity,HourlyPrecipIn,Conditions,Clouds,dailyrainin,SoftwareType,DateUTC
2013-02-06 00:03:00,23.7,15.4,29.96,NW,315,2.0,4.0,70,0.00,,,0.00,meteohub,2013-02-06 06:03:00,
2013-02-06 00:08:00,23.5,15.3,29.96,West,270,2.0,4.0,70,0.00,,,0.00,meteohub,2013-02-06 06:08:00,
2013-02-06 00:13:00,23.4,15.1,29.96,NW,315,2.0,3.0,70,0.00,,,0.00,meteohub,2013-02-06 06:13:00,
2013-02-06 00:18:00,23.4,15.1,29.96,NW,315,2.0,2.0,70,0.00,,,0.00,meteohub,2013-02-06 06:18:00,
2013-02-06 00:23:00,23.2,14.9,29.96,NW,315,2.0,2.0,70,0.00,,,0.00,meteohub,2013-02-06 06:23:00,
2013-02-06 00:28:00,23.0,14.7,29.96,NW,315,2.0,2.0,70,0.00,,,0.00,meteohub,2013-02-06 06:28:00,
2013-02-06 00:33:00,22.8,15.1,29.97,North,0,4.0,4.0,72,0.00,,,0.00,meteohub,2013-02-06 06:33:00,
2013-02-06 00:38:00,22.8,15.1,29.97,NW,315,5.0,5.0,72,0.00,,,0.00,meteohub,2013-02-06 06:38:00,
2013-02-06 00:43:00,22.8,15.1,29.97,NW,315,4.0,5.0,72,0.00,,,0.00,meteohub,2013-02-06 06:43:00,
2013-02-06 00:49:00,22.6,14.9,29.97,North,0,4.0,5.0,72,0.00,,,0.00,meteohub,2013-02-06 06:49:00,
2013-02-06 00:54:00,22.5,14.7,29.97,North,0,3.0,5.0,72,0.00,,,0.00,meteohub,2013-02-06 06:54:00,
2013-02-06 00:59:00,22.5,14.7,29.97,North,0,3.0,4.0,72,0.00,,,0.00,meteohub,2013-02-06 06:59:00,
2013-02-06 01:04:00,22.1,14.7,29.97,NW,315,3.0,4.0,73,0.00,,,0.00,meteohub,2013-02-06 07:04:00,
2013-02-06 01:09:00,22.1,14.7,29.97,NW,315,2.0,4.0,73,0.00,,,0.00,meteohub,2013-02-06 07:09:00,
2013-02-06 01:14:00,21.9,14.5,29.97,NW,315,4.0,4.0,73,0.00,,,0.00,meteohub,2013-02-06 07:14:00,
2013-02-06 01:19:00,22.1,15.1,29.97,North,0,3.0,4.0,74,0.00,,,0.00,meteohub,2013-02-06 07:19:00,
2013-02-06 01:24:00,21.9,14.9,29.97,NW,315,4.0,4.0,74,0.00,,,0.00,meteohub,2013-02-06 07:24:00,
2013-02-06 01:29:00,21.7,14.7,29.96,NW,315,4.0,4.0,74,0.00,,,0.00,meteohub,2013-02-06 07:29:00,
2013-02-06 01:34:00,21.6,14.5,29.98,NW,315,3.0,4.0,74,0.00,,,0.00,meteohub,2013-02-06 07:34:00,
2013-02-06 01:39:00,21.4,14.4,29.97,North,0,4.0,4.0,74,0.00,,,0.00,meteohub,2013-02-06 07:39:00,
2013-02-06 01:44:00,21.4,14.4,29.98,NW,315,4.0,4.0,74,0.00,,,0.00,meteohub,2013-02-06 07:44:00,
2013-02-06 01:49:00,21.2,14.2,29.98,NW,315,4.0,4.0,74,0.00,,,0.00,meteohub,2013-02-06 07:49:00,
2013-02-06 01:54:00,21.0,14.4,29.98,NW,315,4.0,4.0,75,0.00,,,0.00,meteohub,2013-02-06 07:54:00,
2013-02-06 01:59:00,21.0,14.4,29.98,NW,315,4.0,4.0,75,0.00,,,0.00,meteohub,2013-02-06 07:59:00,
2013-02-06 02:04:00,21.0,14.4,29.98,North,0,4.0,4.0,75,0.00,,,0.00,meteohub,2013-02-06 08:04:00,
2013-02-06 02:09:00,20.7,14.0,29.99,NW,315,4.0,5.0,75,0.00,,,0.00,meteohub,2013-02-06 08:09:00,
2013-02-06 02:14:00,20.5,13.8,29.98,North,0,2.0,5.0,75,0.00,,,0.00,meteohub,2013-02-06 08:14:00,
2013-02-06 02:19:00,20.3,14.0,29.98,NW,315,3.0,5.0,76,0.00,,,0.00,meteohub,2013-02-06 08:19:00,
2013-02-06 02:24:00,20.3,14.0,29.99,North,0,3.0,4.0,76,0.00,,,0.00,meteohub,2013-02-06 08:24:00,
2013-02-06 02:29:00,20.3,14.0,29.98,North,0,2.0,4.0,76,0.00,,,0.00,meteohub,2013-02-06 08:29:00,
2013-02-06 02:34:00,19.9,13.6,29.97,North,0,3.0,4.0,76,0.00,,,0.00,meteohub,2013-02-06 08:34:00,
2013-02-06 02:40:00,19.6,13.3,29.97,North,0,2.0,3.0,76,0.00,,,0.00,meteohub,2013-02-06 08:40:00,
2013-02-06 02:45:00,19.8,13.6,29.96,North,0,4.0,4.0,77,0.00,,,0.00,meteohub,2013-02-06 08:45:00,
2013-02-06 02:50:00,20.3,14.2,29.96,NE,45,4.0,4.0,77,0.00,,,0.00,meteohub,2013-02-06 08:50:00,
2013-02-06 02:55:00,21.0,14.9,29.96,North,0,3.0,4.0,77,0.00,,,0.00,meteohub,2013-02-06 08:55:00,
2013-02-06 03:00:00,21.0,14.9,29.96,NE,45,4.0,5.0,77,0.00,,,0.00,meteohub,2013-02-06 09:00:00,
2013-02-06 03:05:00,21.2,14.5,29.96,NE,45,4.0,5.0,75,0.00,,,0.00,meteohub,2013-02-06 09:05:00,
2013-02-06 03:10:00,21.0,14.7,29.96,NE,45,5.0,5.0,76,0.00,,,0.00,meteohub,2013-02-06 09:10:00,
2013-02-06 03:15:00,20.8,14.5,29.95,East,90,3.0,5.0,76,0.00,,,0.00,meteohub,2013-02-06 09:15:00,
2013-02-06 03:20:00,21.0,14.7,29.96,NE,45,4.0,5.0,76,0.00,,,0.00,meteohub,2013-02-06 09:20:00,
2013-02-06 03:25:00,21.2,14.5,29.96,NE,45,4.0,5.0,75,0.00,,,0.00,meteohub,2013-02-06 09:25:00,
2013-02-06 03:30:00,21.2,14.2,29.96,East,90,3.0,5.0,74,0.00,,,0.00,meteohub,2013-02-06 09:30:00,
2013-02-06 03:35:00,21.2,14.2,29.96,East,90,4.0,4.0,74,0.00,,,0.00,meteohub,2013-02-06 09:35:00,
2013-02-06 03:40:00,21.2,14.2,29.96,East,90,3.0,5.0,74,0.00,,,0.00,meteohub,2013-02-06 09:40:00,
2013-02-06 03:45:00,21.0,14.4,29.97,East,90,4.0,5.0,75,0.00,,,0.00,meteohub,2013-02-06 09:45:00,
2013-02-06 03:50:00,21.0,14.0,29.97,East,90,4.0,5.0,74,0.00,,,0.00,meteohub,2013-02-06 09:50:00,
2013-02-06 03:55:00,21.0,14.0,29.97,East,90,3.0,5.0,74,0.00,,,0.00,meteohub,2013-02-06 09:55:00,
2013-02-06 04:00:00,20.8,13.8,29.97,East,90,3.0,5.0,74,0.00,,,0.00,meteohub,2013-02-06 10:00:00,
2013-02-06 04:05:00,20.8,13.8,29.97,East,90,4.0,4.0,74,0.00,,,0.00,meteohub,2013-02-06 10:05:00,
2013-02-06 04:10:00,20.8,13.6,29.97,East,90,4.0,4.0,73,0.00,,,0.00,meteohub,2013-02-06 10:10:00,
2013-02-06 04:15:00,20.8,13.6,29.97,SE,135,4.0,5.0,73,0.00,,,0.00,meteohub,2013-02-06 10:15:00,
2013-02-06 04:20:00,20.8,13.6,29.98,SE,135,4.0,5.0,73,0.00,,,0.00,meteohub,2013-02-06 10:20:00,
2013-02-06 04:25:00,20.7,13.5,29.98,East,90,4.0,5.0,73,0.00,,,0.00,meteohub,2013-02-06 10:25:00,
2013-02-06 04:30:00,20.5,13.3,29.98,East,90,4.0,4.0,73,0.00,,,0.00,meteohub,2013-02-06 10:30:00,
2013-02-06 04:36:00,20.5,12.9,29.98,East,90,5.0,5.0,72,0.00,,,0.00,meteohub,2013-02-06 10:36:00,
2013-02-06 04:41:00,20.5,12.9,29.98,East,90,4.0,6.0,72,0.00,,,0.00,meteohub,2013-02-06 10:41:00,
2013-02-06 04:46:00,20.3,12.7,29.98,East,90,4.0,6.0,72,0.00,,,0.00,meteohub,2013-02-06 10:46:00,
2013-02-06 04:51:00,20.3,12.7,29.98,East,90,4.0,6.0,72,0.00,,,0.00,meteohub,2013-02-06 10:51:00,
2013-02-06 04:56:00,20.1,12.6,29.98,East,90,5.0,5.0,72,0.00,,,0.00,meteohub,2013-02-06 10:56:00,
2013-02-06 05:01:00,20.1,12.6,29.98,East,90,5.0,5.0,72,0.00,,,0.00,meteohub,2013-02-06 11:01:00,
2013-02-06 05:06:00,20.1,12.6,29.98,SE,135,6.0,6.0,72,0.00,,,0.00,meteohub,2013-02-06 11:06:00,
2013-02-06 05:11:00,19.9,12.4,29.98,SE,135,6.0,7.0,72,0.00,,,0.00,meteohub,2013-02-06 11:11:00,
2013-02-06 05:16:00,19.8,12.2,29.98,SE,135,4.0,7.0,72,0.00,,,0.00,meteohub,2013-02-06 11:16:00,
2013-02-06 05:21:00,19.8,12.6,29.97,East,90,5.0,7.0,73,0.00,,,0.00,meteohub,2013-02-06 11:21:00,
2013-02-06 05:26:00,19.8,12.6,29.97,SE,135,6.0,8.0,73,0.00,,,0.00,meteohub,2013-02-06 11:26:00,
2013-02-06 05:31:00,19.6,12.4,29.97,SE,135,4.0,8.0,73,0.00,,,0.00,meteohub,2013-02-06 11:31:00,
2013-02-06 05:36:00,19.6,12.6,29.97,SE,135,7.0,8.0,74,0.00,,,0.00,meteohub,2013-02-06 11:36:00,
2013-02-06 05:41:00,19.2,11.1,29.97,SE,135,5.0,8.0,70,0.00,,,0.00,meteohub,2013-02-06 11:41:00,
2013-02-06 05:46:00,18.9,10.8,29.97,SE,135,8.0,8.0,70,0.00,,,0.00,meteohub,2013-02-06 11:46:00,
2013-02-06 05:51:00,18.7,10.8,29.98,South,180,7.0,8.0,71,0.00,,,0.00,meteohub,2013-02-06 11:51:00,
2013-02-06 05:56:00,18.5,10.8,29.98,SE,135,7.0,8.0,71,0.00,,,0.00,meteohub,2013-02-06 11:56:00,
2013-02-06 06:01:00,18.5,10.8,29.98,SE,135,6.0,8.0,71,0.00,,,0.00,meteohub,2013-02-06 12:01:00,
2013-02-06 06:07:00,18.3,10.8,29.99,SE,135,6.0,8.0,72,0.00,,,0.00,meteohub,2013-02-06 12:07:00,
2013-02-06 06:12:00,18.0,10.4,29.99,SE,135,6.0,7.0,72,0.00,,,0.00,meteohub,2013-02-06 12:12:00,
2013-02-06 06:17:00,18.0,10.4,29.99,SE,135,8.0,9.0,72,0.00,,,0.00,meteohub,2013-02-06 12:17:00,
2013-02-06 06:22:00,18.0,10.8,29.99,SE,135,8.0,9.0,73,0.00,,,0.00,meteohub,2013-02-06 12:22:00,
2013-02-06 06:27:00,18.0,10.8,29.99,SE,135,8.0,9.0,73,0.00,,,0.00,meteohub,2013-02-06 12:27:00,
2013-02-06 06:32:00,17.6,10.4,29.99,East,90,8.0,9.0,73,0.00,,,0.00,meteohub,2013-02-06 12:32:00,
2013-02-06 06:37:00,17.4,10.6,29.99,SE,135,8.0,9.0,74,0.00,,,0.00,meteohub,2013-02-06 12:37:00,
2013-02-06 06:42:00,17.2,10.4,29.99,SE,135,9.0,9.0,74,0.00,,,0.00,meteohub,2013-02-06 12:42:00,
2013-02-06 06:47:00,17.2,10.4,29.99,South,180,8.0,9.0,74,0.00,,,0.00,meteohub,2013-02-06 12:47:00,
2013-02-06 06:52:00,17.4,10.9,30.00,SE,135,7.0,10.0,75,0.00,,,0.00,meteohub,2013-02-06 12:52:00,
2013-02-06 06:57:00,17.2,10.8,30.00,SE,135,8.0,10.0,75,0.00,,,0.00,meteohub,2013-02-06 12:57:00,
2013-02-06 07:02:00,17.2,10.8,30.00,SE,135,6.0,10.0,75,0.00,,,0.00,meteohub,2013-02-06 13:02:00,
2013-02-06 07:07:00,17.1,10.6,30.00,SE,135,9.0,9.0,75,0.00,,,0.00,meteohub,2013-02-06 13:07:00,
2013-02-06 07:12:00,17.2,10.8,30.01,SE,135,8.0,9.0,75,0.00,,,0.00,meteohub,2013-02-06 13:12:00,
2013-02-06 07:17:00,17.2,10.8,30.01,SE,135,6.0,9.0,75,0.00,,,0.00,meteohub,2013-02-06 13:17:00,
2013-02-06 07:22:00,16.9,10.4,30.02,SE,135,8.0,9.0,75,0.00,,,0.00,meteohub,2013-02-06 13:22:00,
2013-02-06 07:27:00,17.1,10.8,30.02,SE,135,7.0,9.0,76,0.00,,,0.00,meteohub,2013-02-06 13:27:00,
2013-02-06 07:32:00,17.4,11.1,30.02,South,180,8.0,9.0,76,0.00,,,0.00,meteohub,2013-02-06 13:32:00,
2013-02-06 07:37:00,17.8,11.1,30.02,SE,135,8.0,9.0,75,0.00,,,0.00,meteohub,2013-02-06 13:37:00,
2013-02-06 07:42:00,18.0,11.3,30.02,South,180,9.0,9.0,75,0.00,,,0.00,meteohub,2013-02-06 13:42:00,
2013-02-06 07:48:00,18.0,11.3,30.02,SE,135,8.0,9.0,75,0.00,,,0.00,meteohub,2013-02-06 13:48:00,
2013-02-06 07:53:00,18.3,11.5,30.01,SE,135,10.0,10.0,74,0.00,,,0.00,meteohub,2013-02-06 13:53:00,
2013-02-06 07:58:00,18.7,11.8,30.00,East,90,7.0,10.0,74,0.00,,,0.00,meteohub,2013-02-06 13:58:00,
2013-02-06 08:03:00,18.7,11.8,30.00,SE,135,8.0,10.0,74,0.00,,,0.00,meteohub,2013-02-06 14:03:00,
2013-02-06 08:08:00,18.9,11.7,30.01,SE,135,7.0,10.0,73,0.00,,,0.00,meteohub,2013-02-06 14:08:00,
2013-02-06 08:13:00,19.0,11.8,30.01,SE,135,5.0,11.0,73,0.00,,,0.00,meteohub,2013-02-06 14:13:00,
2013-02-06 08:18:00,19.4,13.1,30.01,SE,135,7.0,11.0,76,0.00,,,0.00,meteohub,2013-02-06 14:18:00,
2013-02-06 08:23:00,19.9,13.6,30.02,SE,135,8.0,11.0,76,0.00,,,0.00,meteohub,2013-02-06 14:23:00,
2013-02-06 08:28:00,20.3,14.0,30.01,South,180,8.0,8.0,76,0.00,,,0.00,meteohub,2013-02-06 14:28:00,
2013-02-06 08:33:00,20.3,13.6,30.01,South,180,9.0,9.0,75,0.00,,,0.00,meteohub,2013-02-06 14:33:00,
2013-02-06 08:38:00,20.3,13.6,30.01,SE,135,12.0,12.0,75,0.00,,,0.00,meteohub,2013-02-06 14:38:00,
2013-02-06 08:43:00,21.0,14.4,30.02,South,180,7.0,12.0,75,0.00,,,0.00,meteohub,2013-02-06 14:43:00,
2013-02-06 08:48:00,21.6,14.5,30.01,SE,135,10.0,12.0,74,0.00,,,0.00,meteohub,2013-02-06 14:48:00,
2013-02-06 08:53:00,22.3,14.7,30.02,South,180,9.0,12.0,72,0.00,,,0.00,meteohub,2013-02-06 14:53:00,
2013-02-06 08:58:00,22.1,13.8,30.03,South,180,8.0,11.0,70,0.00,,,0.00,meteohub,2013-02-06 14:58:00,
2013-02-06 09:03:00,21.4,13.1,30.03,SE,135,8.0,11.0,70,0.00,,,0.00,meteohub,2013-02-06 15:03:00,
2013-02-06 09:08:00,21.9,13.6,30.03,South,180,13.0,13.0,70,0.00,,,0.00,meteohub,2013-02-06 15:08:00,
2013-02-06 09:13:00,21.9,13.3,30.03,SE,135,9.0,12.0,69,0.00,,,0.00,meteohub,2013-02-06 15:13:00,
2013-02-06 09:18:00,21.9,13.3,30.02,South,180,10.0,13.0,69,0.00,,,0.00,meteohub,2013-02-06 15:18:00,
2013-02-06 09:24:00,22.1,13.5,30.03,SE,135,10.0,13.0,69,0.00,,,0.00,meteohub,2013-02-06 15:24:00,
2013-02-06 09:29:00,22.5,13.8,30.03,SE,135,10.0,12.0,69,0.00,,,0.00,meteohub,2013-02-06 15:29:00,
2013-02-06 09:34:00,22.5,13.5,30.04,SE,135,10.0,11.0,68,0.00,,,0.00,meteohub,2013-02-06 15:34:00,
2013-02-06 09:39:00,22.6,13.6,30.03,South,180,11.0,11.0,68,0.00,,,0.00,meteohub,2013-02-06 15:39:00,
2013-02-06 09:44:00,22.8,13.8,30.02,South,180,8.0,12.0,68,0.00,,,0.00,meteohub,2013-02-06 15:44:00,
2013-02-06 09:49:00,23.5,13.8,30.02,South,180,6.0,12.0,66,0.00,,,0.00,meteohub,2013-02-06 15:49:00,
2013-02-06 09:54:00,24.6,14.9,30.02,South,180,9.0,12.0,66,0.00,,,0.00,meteohub,2013-02-06 15:54:00,
2013-02-06 09:59:00,24.8,14.4,30.02,SE,135,8.0,11.0,64,0.00,,,0.00,meteohub,2013-02-06 15:59:00,
2013-02-06 10:04:00,25.5,15.1,30.02,South,180,9.0,11.0,64,0.00,,,0.00,meteohub,2013-02-06 16:04:00,
2013-02-06 10:09:00,25.0,14.2,30.03,South,180,7.0,11.0,63,0.00,,,0.00,meteohub,2013-02-06 16:09:00,
2013-02-06 10:14:00,25.5,14.7,30.02,East,90,5.0,11.0,63,0.00,,,0.00,meteohub,2013-02-06 16:14:00,
2013-02-06 10:19:00,25.7,14.5,30.03,SE,135,8.0,11.0,62,0.00,,,0.00,meteohub,2013-02-06 16:19:00,
2013-02-06 10:25:00,26.8,15.1,30.04,SE,135,11.0,11.0,61,0.00,,,0.00,meteohub,2013-02-06 16:25:00,
2013-02-06 10:30:00,27.3,15.6,30.04,SE,135,8.0,11.0,61,0.00,,,0.00,meteohub,2013-02-06 16:30:00,
2013-02-06 10:35:00,27.7,15.6,30.04,South,180,12.0,13.0,60,0.00,,,0.00,meteohub,2013-02-06 16:35:00,
2013-02-06 10:40:00,27.7,15.6,30.04,SE,135,9.0,13.0,60,0.00,,,0.00,meteohub,2013-02-06 16:40:00,
2013-02-06 10:45:00,27.9,15.8,30.05,SE,135,11.0,13.0,60,0.00,,,0.00,meteohub,2013-02-06 16:45:00,
2013-02-06 10:50:00,27.7,15.6,30.05,SE,135,11.0,11.0,60,0.00,,,0.00,meteohub,2013-02-06 16:50:00,
2013-02-06 10:55:00,28.0,16.0,30.06,SE,135,8.0,11.0,60,0.00,,,0.00,meteohub,2013-02-06 16:55:00,
2013-02-06 11:00:00,28.4,17.8,30.06,South,180,8.0,11.0,64,0.00,,,0.00,meteohub,2013-02-06 17:00:00,
2013-02-06 11:05:00,28.4,17.4,30.06,SE,135,8.0,11.0,63,0.00,,,0.00,meteohub,2013-02-06 17:05:00,
2013-02-06 11:10:00,28.6,17.6,30.06,East,90,8.0,10.0,63,0.00,,,0.00,meteohub,2013-02-06 17:10:00,
2013-02-06 11:15:00,28.9,18.0,30.06,SE,135,8.0,10.0,63,0.00,,,0.00,meteohub,2013-02-06 17:15:00,
2013-02-06 11:20:00,28.8,17.8,30.06,South,180,4.0,12.0,63,0.00,,,0.00,meteohub,2013-02-06 17:20:00,
2013-02-06 11:25:00,28.6,17.6,30.06,South,180,6.0,12.0,63,0.00,,,0.00,meteohub,2013-02-06 17:25:00,
2013-02-06 11:31:00,28.8,17.8,30.06,SE,135,9.0,12.0,63,0.00,,,0.00,meteohub,2013-02-06 17:31:00,
2013-02-06 11:36:00,28.9,18.3,30.06,SW,225,9.0,12.0,64,0.00,,,0.00,meteohub,2013-02-06 17:36:00,
2013-02-06 11:41:00,28.8,18.1,30.06,South,180,5.0,12.0,64,0.00,,,0.00,meteohub,2013-02-06 17:41:00,
2013-02-06 11:46:00,28.6,18.0,30.06,South,180,10.0,12.0,64,0.00,,,0.00,meteohub,2013-02-06 17:46:00,
2013-02-06 11:51:00,28.6,18.3,30.06,South,180,10.0,12.0,65,0.00,,,0.00,meteohub,2013-02-06 17:51:00,
2013-02-06 11:56:00,29.1,18.9,30.06,South,180,11.0,12.0,65,0.00,,,0.00,meteohub,2013-02-06 17:56:00,
2013-02-06 12:01:00,29.5,19.2,30.06,South,180,11.0,11.0,65,0.00,,,0.00,meteohub,2013-02-06 18:01:00,
2013-02-06 12:06:00,29.8,19.6,30.06,South,180,13.0,13.0,65,0.00,,,0.00,meteohub,2013-02-06 18:06:00,
2013-02-06 12:11:00,30.4,19.2,30.06,SE,135,12.0,13.0,63,0.00,,,0.00,meteohub,2013-02-06 18:11:00,
2013-02-06 12:16:00,30.2,19.0,30.05,SE,135,9.0,13.0,63,0.00,,,0.00,meteohub,2013-02-06 18:16:00,
2013-02-06 12:21:00,30.4,19.2,30.05,SE,135,11.0,13.0,63,0.00,,,0.00,meteohub,2013-02-06 18:21:00,
2013-02-06 12:26:00,30.6,19.8,30.05,South,180,14.0,14.0,64,0.00,,,0.00,meteohub,2013-02-06 18:26:00,
2013-02-06 12:31:00,30.9,20.1,30.05,South,180,9.0,14.0,64,0.00,,,0.00,meteohub,2013-02-06 18:31:00,
2013-02-06 12:36:00,31.5,20.7,30.04,SE,135,8.0,14.0,64,0.00,,,0.00,meteohub,2013-02-06 18:36:00,
2013-02-06 12:42:00,31.6,20.8,30.04,South,180,9.0,14.0,64,0.00,,,0.00,meteohub,2013-02-06 18:42:00,
2013-02-06 12:47:00,31.8,21.0,30.04,SE,135,8.0,10.0,64,0.00,,,0.00,meteohub,2013-02-06 18:47:00,
2013-02-06 12:52:00,33.1,21.9,30.04,SE,135,7.0,12.0,63,0.00,,,0.00,meteohub,2013-02-06 18:52:00,
2013-02-06 12:57:00,34.0,21.2,30.03,SE,135,13.0,13.0,59,0.00,,,0.00,meteohub,2013-02-06 18:57:00,
2013-02-06 13:02:00,33.6,20.8,30.02,South,180,10.0,13.0,59,0.00,,,0.00,meteohub,2013-02-06 19:02:00,
2013-02-06 13:07:00,33.6,20.8,30.01,SE,135,13.0,14.0,59,0.00,,,0.00,meteohub,2013-02-06 19:07:00,
2013-02-06 13:12:00,34.2,21.4,30.02,SE,135,8.0,15.0,59,0.00,,,0.00,meteohub,2013-02-06 19:12:00,
2013-02-06 13:17:00,33.6,20.8,30.02,South,180,15.0,15.0,59,0.00,,,0.00,meteohub,2013-02-06 19:17:00,
2013-02-06 13:22:00,33.4,21.4,30.02,South,180,13.0,15.0,61,0.00,,,0.00,meteohub,2013-02-06 19:22:00,
2013-02-06 13:27:00,34.2,21.4,30.01,SE,135,8.0,15.0,59,0.00,,,0.00,meteohub,2013-02-06 19:27:00,
2013-02-06 13:32:00,33.6,20.8,30.02,South,180,8.0,15.0,59,0.00,,,0.00,meteohub,2013-02-06 19:32:00,
2013-02-06 13:37:00,33.1,20.7,30.02,South,180,11.0,15.0,60,0.00,,,0.00,meteohub,2013-02-06 19:37:00,
2013-02-06 13:42:00,32.9,20.8,30.01,South,180,8.0,15.0,61,0.00,,,0.00,meteohub,2013-02-06 19:42:00,
2013-02-06 13:47:00,32.9,20.8,30.01,South,180,5.0,13.0,61,0.00,,,0.00,meteohub,2013-02-06 19:47:00,
2013-02-06 13:52:00,33.8,21.7,30.01,South,180,8.0,13.0,61,0.00,,,0.00,meteohub,2013-02-06 19:52:00,
2013-02-06 13:57:00,34.9,21.9,30.01,SE,135,8.0,9.0,59,0.00,,,0.00,meteohub,2013-02-06 19:57:00,
2013-02-06 14:03:00,34.7,21.4,30.02,South,180,11.0,11.0,58,0.00,,,0.00,meteohub,2013-02-06 20:03:00,
2013-02-06 14:08:00,34.3,20.7,30.02,SE,135,11.0,11.0,57,0.00,,,0.00,meteohub,2013-02-06 20:08:00,
2013-02-06 14:13:00,34.2,20.8,30.02,South,180,5.0,11.0,58,0.00,,,0.00,meteohub,2013-02-06 20:13:00,
2013-02-06 14:18:00,34.2,20.8,30.02,South,180,8.0,11.0,58,0.00,,,0.00,meteohub,2013-02-06 20:18:00,
2013-02-06 14:23:00,34.0,21.2,30.03,SE,135,8.0,11.0,59,0.00,,,0.00,meteohub,2013-02-06 20:23:00,
2013-02-06 14:28:00,34.2,21.7,30.02,SE,135,7.0,11.0,60,0.00,,,0.00,meteohub,2013-02-06 20:28:00,
2013-02-06 14:33:00,34.5,22.1,30.03,SE,135,6.0,11.0,60,0.00,,,0.00,meteohub,2013-02-06 20:33:00,
2013-02-06 14:38:00,34.5,22.1,30.01,SE,135,9.0,11.0,60,0.00,,,0.00,meteohub,2013-02-06 20:38:00,
2013-02-06 14:43:00,34.3,21.9,30.02,South,180,8.0,11.0,60,0.00,,,0.00,meteohub,2013-02-06 20:43:00,
2013-02-06 14:48:00,34.0,21.6,30.02,South,180,12.0,12.0,60,0.00,,,0.00,meteohub,2013-02-06 20:48:00,
2013-02-06 14:53:00,34.0,21.9,30.02,South,180,9.0,13.0,61,0.00,,,0.00,meteohub,2013-02-06 20:53:00,
2013-02-06 14:58:00,34.2,22.1,30.02,South,180,9.0,13.0,61,0.00,,,0.00,meteohub,2013-02-06 20:58:00,
2013-02-06 15:03:00,34.0,21.9,30.02,SE,135,11.0,13.0,61,0.00,,,0.00,meteohub,2013-02-06 21:03:00,
2013-02-06 15:08:00,33.8,22.1,30.01,SE,135,8.0,12.0,62,0.00,,,0.00,meteohub,2013-02-06 21:08:00,
2013-02-06 15:13:00,33.6,22.5,30.01,SE,135,8.0,12.0,63,0.00,,,0.00,meteohub,2013-02-06 21:13:00,
2013-02-06 15:18:00,33.8,22.1,30.01,SE,135,9.0,12.0,62,0.00,,,0.00,meteohub,2013-02-06 21:18:00,
2013-02-06 15:23:00,34.0,22.3,30.01,SE,135,8.0,11.0,62,0.00,,,0.00,meteohub,2013-02-06 21:23:00,
2013-02-06 15:29:00,34.2,22.8,30.00,SE,135,11.0,11.0,63,0.00,,,0.00,meteohub,2013-02-06 21:29:00,
2013-02-06 15:34:00,34.3,23.0,30.00,SE,135,11.0,11.0,63,0.00,,,0.00,meteohub,2013-02-06 21:34:00,
2013-02-06 15:39:00,34.2,22.8,30.00,SE,135,9.0,11.0,63,0.00,,,0.00,meteohub,2013-02-06 21:39:00,
2013-02-06 15:44:00,34.0,22.6,29.99,East,90,9.0,11.0,63,0.00,,,0.00,meteohub,2013-02-06 21:44:00,
2013-02-06 15:49:00,33.8,22.5,29.99,SE,135,13.0,13.0,63,0.00,,,0.00,meteohub,2013-02-06 21:49:00,
2013-02-06 15:54:00,33.6,23.2,29.98,SE,135,10.0,12.0,65,0.00,,,0.00,meteohub,2013-02-06 21:54:00,
2013-02-06 15:59:00,33.6,23.5,29.97,SE,135,10.0,14.0,66,0.00,,,0.00,meteohub,2013-02-06 21:59:00,
2013-02-06 16:04:00,33.6,23.9,29.97,SE,135,11.0,14.0,67,0.00,,,0.00,meteohub,2013-02-06 22:04:00,
2013-02-06 16:09:00,33.6,23.9,29.97,SE,135,13.0,14.0,67,0.00,,,0.00,meteohub,2013-02-06 22:09:00,
2013-02-06 16:14:00,33.4,24.1,29.97,SE,135,11.0,14.0,68,0.00,,,0.00,meteohub,2013-02-06 22:14:00,
2013-02-06 16:19:00,33.6,24.3,29.97,SE,135,9.0,15.0,68,0.00,,,0.00,meteohub,2013-02-06 22:19:00,
2013-02-06 16:24:00,33.8,24.4,29.96,SE,135,12.0,15.0,68,0.00,,,0.00,meteohub,2013-02-06 22:24:00,
2013-02-06 16:29:00,33.8,24.8,29.96,SE,135,12.0,15.0,69,0.00,,,0.00,meteohub,2013-02-06 22:29:00,
2013-02-06 16:34:00,34.0,24.8,29.95,SE,135,10.0,17.0,69,0.00,,,0.00,meteohub,2013-02-06 22:34:00,
2013-02-06 16:39:00,34.0,25.2,29.96,South,180,10.0,17.0,70,0.00,,,0.00,meteohub,2013-02-06 22:39:00,
2013-02-06 16:44:00,34.0,25.2,29.96,SE,135,8.0,15.0,70,0.00,,,0.00,meteohub,2013-02-06 22:44:00,
2013-02-06 16:49:00,34.0,25.5,29.96,SE,135,8.0,15.0,71,0.00,,,0.00,meteohub,2013-02-06 22:49:00,
2013-02-06 16:54:00,33.8,25.3,29.96,SE,135,8.0,15.0,71,0.00,,,0.00,meteohub,2013-02-06 22:54:00,
2013-02-06 16:59:00,33.8,25.7,29.95,SE,135,10.0,13.0,72,0.00,,,0.00,meteohub,2013-02-06 22:59:00,
2013-02-06 17:04:00,33.8,25.7,29.94,SE,135,14.0,14.0,72,0.00,,,0.00,meteohub,2013-02-06 23:04:00,
2013-02-06 17:09:00,33.8,25.7,29.94,SE,135,16.0,16.0,72,0.00,,,0.00,meteohub,2013-02-06 23:09:00,
2013-02-06 17:14:00,34.0,26.2,29.94,SE,135,16.0,16.0,73,0.00,,,0.00,meteohub,2013-02-06 23:14:00,
2013-02-06 17:19:00,34.0,26.2,29.93,SE,135,15.0,17.0,73,0.00,,,0.00,meteohub,2013-02-06 23:19:00,
2013-02-06 17:25:00,34.2,26.8,29.93,SE,135,17.0,17.0,74,0.00,,,0.00,meteohub,2013-02-06 23:25:00,
2013-02-06 17:30:00,34.2,26.8,29.93,SE,135,13.0,17.0,74,0.00,,,0.00,meteohub,2013-02-06 23:30:00,
2013-02-06 17:35:00,34.2,27.1,29.94,South,180,11.0,17.0,75,0.00,,,0.00,meteohub,2013-02-06 23:35:00,
2013-02-06 17:40:00,34.2,27.1,29.94,SE,135,9.0,17.0,75,0.00,,,0.00,meteohub,2013-02-06 23:40:00,
2013-02-06 17:45:00,34.2,27.1,29.94,SE,135,8.0,14.0,75,0.00,,,0.00,meteohub,2013-02-06 23:45:00,
2013-02-06 17:50:00,34.2,27.3,29.94,SE,135,10.0,14.0,76,0.00,,,0.00,meteohub,2013-02-06 23:50:00,
2013-02-06 17:55:00,34.3,27.5,29.95,SE,135,7.0,11.0,76,0.00,,,0.00,meteohub,2013-02-06 23:55:00,
2013-02-06 18:00:00,34.3,27.9,29.95,SE,135,8.0,11.0,77,0.00,,,0.00,meteohub,2013-02-07 00:00:00,
2013-02-06 18:05:00,34.5,28.0,29.94,SE,135,8.0,11.0,77,0.00,,,0.00,meteohub,2013-02-07 00:05:00,
2013-02-06 18:10:00,34.7,28.2,29.94,SE,135,11.0,11.0,77,0.00,,,0.00,meteohub,2013-02-07 00:10:00,
2013-02-06 18:15:00,34.9,28.4,29.94,SE,135,9.0,12.0,77,0.00,,,0.00,meteohub,2013-02-07 00:15:00,
2013-02-06 18:20:00,34.9,28.4,29.94,SE,135,9.0,12.0,77,0.00,,,0.00,meteohub,2013-02-07 00:20:00,
2013-02-06 18:25:00,34.9,28.4,29.94,SE,135,8.0,12.0,77,0.00,,,0.00,meteohub,2013-02-07 00:25:00,
2013-02-06 18:30:00,35.1,28.6,29.94,SE,135,11.0,11.0,77,0.00,,,0.00,meteohub,2013-02-07 00:30:00,
2013-02-06 18:35:00,35.1,28.6,29.94,SE,135,9.0,12.0,77,0.00,,,0.00,meteohub,2013-02-07 00:35:00,
2013-02-06 18:40:00,35.1,28.6,29.94,SE,135,11.0,12.0,77,0.00,,,0.00,meteohub,2013-02-07 00:40:00,
2013-02-06 18:45:00,35.2,28.8,29.94,SE,135,12.0,12.0,77,0.00,,,0.00,meteohub,2013-02-07 00:45:00,
2013-02-06 18:50:00,35.2,28.8,29.94,SE,135,10.0,13.0,77,0.00,,,0.00,meteohub,2013-02-07 00:50:00,
2013-02-06 18:55:00,35.1,28.6,29.94,SE,135,8.0,13.0,77,0.00,,,0.00,meteohub,2013-02-07 00:55:00,
2013-02-06 19:01:00,35.1,28.6,29.94,SE,135,10.0,13.0,77,0.00,,,0.00,meteohub,2013-02-07 01:01:00,
2013-02-06 19:06:00,35.1,28.9,29.94,SE,135,9.0,13.0,78,0.00,,,0.00,meteohub,2013-02-07 01:06:00,
2013-02-06 19:11:00,35.1,28.9,29.94,SE,135,8.0,15.0,78,0.00,,,0.00,meteohub,2013-02-07 01:11:00,
2013-02-06 19:16:00,35.1,28.9,29.94,SE,135,11.0,15.0,78,0.00,,,0.00,meteohub,2013-02-07 01:16:00,
2013-02-06 19:21:00,34.9,28.8,29.94,SE,135,13.0,15.0,78,0.00,,,0.00,meteohub,2013-02-07 01:21:00,
2013-02-06 19:26:00,34.9,29.1,29.94,SE,135,11.0,14.0,79,0.00,,,0.00,meteohub,2013-02-07 01:26:00,
2013-02-06 19:31:00,34.9,29.1,29.94,SE,135,11.0,14.0,79,0.00,,,0.00,meteohub,2013-02-07 01:31:00,
2013-02-06 19:36:00,35.1,29.1,29.93,SE,135,14.0,14.0,79,0.00,,,0.00,meteohub,2013-02-07 01:36:00,
2013-02-06 19:41:00,35.1,29.1,29.93,SE,135,11.0,14.0,79,0.00,,,0.00,meteohub,2013-02-07 01:41:00,
2013-02-06 19:46:00,35.1,29.1,29.92,SE,135,10.0,15.0,79,0.00,,,0.00,meteohub,2013-02-07 01:46:00,
2013-02-06 19:51:00,35.2,29.3,29.92,East,90,15.0,15.0,79,0.00,,,0.00,meteohub,2013-02-07 01:51:00,
2013-02-06 19:56:00,35.6,29.1,29.91,SE,135,19.0,19.0,77,0.00,,,0.00,meteohub,2013-02-07 01:56:00,
2013-02-06 20:01:00,35.8,28.9,29.91,SE,135,15.0,19.0,76,0.00,,,0.00,meteohub,2013-02-07 02:01:00,
2013-02-06 20:06:00,36.0,29.1,29.91,SE,135,14.0,19.0,76,0.00,,,0.00,meteohub,2013-02-07 02:06:00,
2013-02-06 20:11:00,35.8,28.6,29.90,SE,135,17.0,19.0,75,0.00,,,0.00,meteohub,2013-02-07 02:11:00,
2013-02-06 20:16:00,36.0,28.8,29.90,East,90,15.0,20.0,75,0.00,,,0.00,meteohub,2013-02-07 02:16:00,
2013-02-06 20:21:00,35.8,28.4,29.90,SE,135,15.0,21.0,74,0.00,,,0.00,meteohub,2013-02-07 02:21:00,
2013-02-06 20:26:00,35.8,28.4,29.90,SE,135,14.0,21.0,74,0.00,,,0.00,meteohub,2013-02-07 02:26:00,
2013-02-06 20:32:00,35.6,28.4,29.90,SE,135,15.0,21.0,75,0.00,,,0.00,meteohub,2013-02-07 02:32:00,
2013-02-06 20:37:00,35.6,28.4,29.90,SE,135,19.0,19.0,75,0.00,,,0.00,meteohub,2013-02-07 02:37:00,
2013-02-06 20:42:00,35.6,28.4,29.90,South,180,17.0,21.0,75,0.00,,,0.00,meteohub,2013-02-07 02:42:00,
2013-02-06 20:47:00,35.4,28.6,29.89,SE,135,15.0,21.0,76,0.00,,,0.00,meteohub,2013-02-07 02:47:00,
2013-02-06 20:52:00,35.4,28.9,29.90,SE,135,11.0,21.0,77,0.00,,,0.00,meteohub,2013-02-07 02:52:00,
2013-02-06 20:57:00,35.2,28.8,29.90,South,180,12.0,18.0,77,0.00,,,0.00,meteohub,2013-02-07 02:57:00,
2013-02-06 21:02:00,35.2,28.8,29.89,SE,135,14.0,20.0,77,0.00,,,0.00,meteohub,2013-02-07 03:02:00,
2013-02-06 21:07:00,35.1,28.9,29.90,SE,135,15.0,20.0,78,0.00,,,0.00,meteohub,2013-02-07 03:07:00,
2013-02-06 21:12:00,35.2,29.1,29.90,SE,135,10.0,20.0,78,0.00,,,0.00,meteohub,2013-02-07 03:12:00,
2013-02-06 21:17:00,35.2,29.1,29.90,SE,135,14.0,17.0,78,0.00,,,0.00,meteohub,2013-02-07 03:17:00,
2013-02-06 21:22:00,35.4,29.3,29.90,South,180,17.0,17.0,78,0.00,,,0.00,meteohub,2013-02-07 03:22:00,
2013-02-06 21:27:00,35.6,29.1,29.90,SE,135,14.0,18.0,77,0.00,,,0.00,meteohub,2013-02-07 03:27:00,
2013-02-06 21:32:00,35.6,28.8,29.90,SE,135,12.0,18.0,76,0.00,,,0.00,meteohub,2013-02-07 03:32:00,
2013-02-06 21:37:00,35.6,28.8,29.91,SE,135,13.0,21.0,76,0.00,,,0.00,meteohub,2013-02-07 03:37:00,
2013-02-06 21:42:00,35.4,28.9,29.91,SE,135,11.0,21.0,77,0.00,,,0.00,meteohub,2013-02-07 03:42:00,
2013-02-06 21:47:00,35.2,28.8,29.90,SE,135,11.0,19.0,77,0.00,,,0.00,meteohub,2013-02-07 03:47:00,
2013-02-06 21:52:00,35.1,28.9,29.90,SE,135,13.0,17.0,78,0.00,,,0.00,meteohub,2013-02-07 03:52:00,
2013-02-06 21:57:00,35.1,28.9,29.91,SE,135,10.0,14.0,78,0.00,,,0.00,meteohub,2013-02-07 03:57:00,
2013-02-06 22:02:00,35.1,28.9,29.90,SE,135,12.0,14.0,78,0.00,,,0.00,meteohub,2013-02-07 04:02:00,
2013-02-06 22:07:00,35.1,28.9,29.91,SE,135,11.0,14.0,78,0.00,,,0.00,meteohub,2013-02-07 04:07:00,
2013-02-06 22:12:00,35.1,29.1,29.91,SE,135,11.0,14.0,79,0.00,,,0.00,meteohub,2013-02-07 04:12:00,
2013-02-06 22:17:00,35.4,29.5,29.91,East,90,12.0,14.0,79,0.00,,,0.00,meteohub,2013-02-07 04:17:00,
2013-02-06 22:22:00,35.4,29.3,29.91,SE,135,11.0,14.0,78,0.00,,,0.00,meteohub,2013-02-07 04:22:00,
2013-02-06 22:27:00,35.4,29.3,29.91,SE,135,9.0,14.0,78,0.00,,,0.00,meteohub,2013-02-07 04:27:00,
2013-02-06 22:32:00,35.6,29.1,29.91,SE,135,11.0,14.0,77,0.00,,,0.00,meteohub,2013-02-07 04:32:00,
2013-02-06 22:37:00,35.4,29.3,29.91,South,180,10.0,13.0,78,0.00,,,0.00,meteohub,2013-02-07 04:37:00,
2013-02-06 22:42:00,35.4,29.3,29.91,South,180,11.0,13.0,78,0.00,,,0.00,meteohub,2013-02-07 04:42:00,
2013-02-06 22:47:00,35.4,29.3,29.91,South,180,8.0,13.0,78,0.00,,,0.00,meteohub,2013-02-07 04:47:00,
2013-02-06 22:52:00,35.4,29.3,29.91,SE,135,11.0,13.0,78,0.00,,,0.00,meteohub,2013-02-07 04:52:00,
2013-02-06 22:57:00,35.8,29.3,29.90,SE,135,12.0,14.0,77,0.00,,,0.00,meteohub,2013-02-07 04:57:00,
2013-02-06 23:01:00,36.0,29.1,29.90,SE,135,19.0,19.0,76,0.00,,,0.00,meteohub,2013-02-07 05:01:00,
2013-02-06 23:02:00,36.1,29.3,29.90,SE,135,12.0,15.0,76,0.00,,,0.00,meteohub,2013-02-07 05:02:00,
2013-02-06 23:03:00,36.1,29.3,29.90,South,180,12.0,15.0,76,0.00,,,0.00,meteohub,2013-02-07 05:03:00,
2013-02-06 23:08:00,36.3,29.1,29.90,SE,135,17.0,19.0,75,0.00,,,0.00,meteohub,2013-02-07 05:08:00,
2013-02-06 23:13:00,36.3,29.1,29.90,South,180,18.0,19.0,75,0.00,,,0.00,meteohub,2013-02-07 05:13:00,
2013-02-06 23:18:00,36.3,29.1,29.89,SE,135,18.0,21.0,75,0.00,,,0.00,meteohub,2013-02-07 05:18:00,
2013-02-06 23:23:00,36.1,28.9,29.90,South,180,18.0,21.0,75,0.00,,,0.00,meteohub,2013-02-07 05:23:00,
2013-02-06 23:28:00,36.1,28.9,29.90,South,180,18.0,22.0,75,0.00,,,0.00,meteohub,2013-02-07 05:28:00,
2013-02-06 23:33:00,36.1,28.9,29.90,SE,135,20.0,22.0,75,0.00,,,0.00,meteohub,2013-02-07 05:33:00,
2013-02-06 23:38:00,36.0,28.8,29.90,SE,135,15.0,21.0,75,0.00,,,0.00,meteohub,2013-02-07 05:38:00,
2013-02-06 23:43:00,36.0,28.8,29.91,South,180,15.0,22.0,75,0.00,,,0.00,meteohub,2013-02-07 05:43:00,
2013-02-06 23:48:00,36.0,28.8,29.91,SE,135,14.0,22.0,75,0.00,,,0.00,meteohub,2013-02-07 05:48:00,
2013-02-06 23:53:00,35.8,28.6,29.91,South,180,14.0,22.0,75,0.00,,,0.00,meteohub,2013-02-07 05:53:00,
2013-02-06 23:58:00,35.8,28.6,29.90,SE,135,17.0,21.0,75,0.00,,,0.00,meteohub,2013-02-07 05:58:00,